createdAt,value
2018-09-15T00:01:44.907Z,19.87
2018-09-15T00:06:42.276Z,21.30
2018-09-15T00:11:39.701Z,14.87
2018-09-15T00:16:37.104Z,23.07
2018-09-15T00:21:34.503Z,19.80
2018-09-15T00:26:31.997Z,19.67
2018-09-15T00:31:29.385Z,19.40
2018-09-15T00:36:26.782Z,26.60
2018-09-15T00:41:24.212Z,24.30
2018-09-15T00:46:21.608Z,19.10
2018-09-15T00:51:18.995Z,20.50
2018-09-15T00:56:16.370Z,20.73
2018-09-15T01:01:14.086Z,19.43
2018-09-15T01:06:11.527Z,23.03
2018-09-15T01:11:09.071Z,19.80
2018-09-15T01:16:06.462Z,20.43
2018-09-15T01:21:03.859Z,16.80
2018-09-15T01:26:01.256Z,27.03
2018-09-15T01:30:58.656Z,13.57
2018-09-15T01:35:56.052Z,22.60
2018-09-15T01:40:53.441Z,17.60
2018-09-15T01:45:50.830Z,13.20
2018-09-15T01:50:48.251Z,14.53
2018-09-15T01:55:45.674Z,16.27
2018-09-15T02:00:43.091Z,12.33
2018-09-15T02:05:40.480Z,21.53
2018-09-15T02:10:37.865Z,12.23
2018-09-15T02:15:35.248Z,17.37
2018-09-15T02:20:32.611Z,15.63
2018-09-15T02:25:29.975Z,11.63
2018-09-15T02:30:27.350Z,11.23
2018-09-15T02:35:24.747Z,11.63
2018-09-15T02:40:22.203Z,14.50
2018-09-15T02:45:19.587Z,16.30
2018-09-15T02:50:16.982Z,20.17
2018-09-15T02:55:14.350Z,11.97
2018-09-15T03:00:11.762Z,16.03
2018-09-15T03:05:09.134Z,13.50
2018-09-15T03:10:07.660Z,13.97
2018-09-15T03:15:05.096Z,15.43
2018-09-15T03:20:02.552Z,10.50
2018-09-15T03:24:59.942Z,15.20
2018-09-15T03:29:57.339Z,10.63
2018-09-15T03:34:54.703Z,9.37
2018-09-15T03:39:56.597Z,12.47
2018-09-15T03:44:53.980Z,14.80
2018-09-15T03:49:51.355Z,21.27
2018-09-15T03:54:48.831Z,13.63
2018-09-15T03:59:46.204Z,12.77
2018-09-15T04:04:43.592Z,17.70
2018-09-15T04:09:49.212Z,14.47
2018-09-15T04:14:46.713Z,16.90
2018-09-15T04:19:44.095Z,15.27
2018-09-15T04:24:41.576Z,23.00
2018-09-15T04:29:39.023Z,12.60
2018-09-15T04:34:36.498Z,14.70
2018-09-15T04:39:43.008Z,13.20
2018-09-15T04:44:40.444Z,12.57
2018-09-15T04:49:37.864Z,14.87
2018-09-15T04:54:35.277Z,20.23
2018-09-15T04:59:32.690Z,15.63
2018-09-15T05:04:30.087Z,12.53
2018-09-15T05:09:38.182Z,15.30
2018-09-15T05:14:35.645Z,18.20
2018-09-15T05:19:33.108Z,15.53
2018-09-15T05:24:30.888Z,23.63
2018-09-15T05:29:28.367Z,16.03
2018-09-15T05:34:25.803Z,18.57
2018-09-15T05:39:29.866Z,18.57
2018-09-15T05:44:27.322Z,20.67
2018-09-15T05:49:24.745Z,15.43
2018-09-15T05:54:22.156Z,18.10
2018-09-15T05:59:19.544Z,29.77
2018-09-15T06:04:16.955Z,26.37
2018-09-15T06:09:15.894Z,22.97
2018-09-15T06:14:13.356Z,18.70
2018-09-15T06:19:10.747Z,20.47
2018-09-15T06:24:08.231Z,14.47
2018-09-15T06:29:06.827Z,17.77
2018-09-15T06:34:04.278Z,19.90
2018-09-15T06:39:03.358Z,15.37
2018-09-15T06:44:00.772Z,14.20
2018-09-15T06:48:58.191Z,8.80
2018-09-15T06:53:55.931Z,18.00
2018-09-15T06:58:53.393Z,20.90
2018-09-15T07:03:50.802Z,11.53
2018-09-15T07:08:48.226Z,19.77
2018-09-15T07:13:45.727Z,9.67
2018-09-15T07:18:43.172Z,8.20
2018-09-15T07:23:40.667Z,10.13
2018-09-15T07:28:38.087Z,17.00
2018-09-15T07:33:35.511Z,12.90
2018-09-15T07:38:32.943Z,8.87
2018-09-15T07:43:30.337Z,15.33
2018-09-15T07:48:27.768Z,9.53
2018-09-15T07:53:25.158Z,6.50
2018-09-15T07:58:22.540Z,3.90
2018-09-15T08:03:19.966Z,16.40
2018-09-15T08:08:17.375Z,17.90
2018-09-15T08:13:14.831Z,17.33
2018-09-15T08:18:12.276Z,21.93
2018-09-15T08:23:09.702Z,13.00
2018-09-15T08:28:07.080Z,31.07
2018-09-15T08:33:04.512Z,11.17
2018-09-15T08:38:01.955Z,13.50
2018-09-15T08:42:59.360Z,12.57
2018-09-15T08:47:57.621Z,7.47
2018-09-15T08:52:55.019Z,9.60
2018-09-15T08:57:52.428Z,7.67
2018-09-15T09:02:49.834Z,16.33
2018-09-15T09:07:47.256Z,4.03
2018-09-15T09:12:44.696Z,10.90
2018-09-15T09:17:42.086Z,9.60
2018-09-15T09:22:39.488Z,10.87
2018-09-15T09:27:37.016Z,10.53
2018-09-15T09:32:34.536Z,13.37
2018-09-15T09:37:31.935Z,13.27
2018-09-15T09:42:29.403Z,7.73
2018-09-15T09:47:26.835Z,6.73
2018-09-15T09:52:24.241Z,3.93
2018-09-15T09:57:21.641Z,5.03
2018-09-15T10:02:23.426Z,13.77
2018-09-15T10:07:20.854Z,11.40
2018-09-15T10:12:18.292Z,6.63
2018-09-15T10:17:15.687Z,4.60
2018-09-15T10:22:13.083Z,7.67
2018-09-15T10:27:10.521Z,7.13
2018-09-15T10:32:07.994Z,11.23
2018-09-15T10:37:05.407Z,5.50
2018-09-15T10:42:02.887Z,11.53
2018-09-15T10:47:00.411Z,9.13
2018-09-15T10:51:58.290Z,5.67
2018-09-15T10:56:55.678Z,17.53
2018-09-15T11:01:53.111Z,8.13
2018-09-15T11:06:50.514Z,5.10
2018-09-15T11:11:47.948Z,9.33
2018-09-15T11:16:45.354Z,8.13
2018-09-15T11:21:42.743Z,5.90
2018-09-15T11:26:40.148Z,3.50
2018-09-15T11:31:37.567Z,13.00
2018-09-15T11:36:34.993Z,6.50
2018-09-15T11:41:32.459Z,3.87
2018-09-15T11:46:30.179Z,4.60
2018-09-15T11:51:27.615Z,3.43
2018-09-15T11:56:25.018Z,7.27
2018-09-15T12:01:22.421Z,4.90
2018-09-15T12:06:19.865Z,6.80
2018-09-15T12:11:17.291Z,2.67
2018-09-15T12:16:14.744Z,3.10
2018-09-15T12:21:12.168Z,5.70
2018-09-15T12:26:09.580Z,2.77
2018-09-15T12:31:06.982Z,2.80
2018-09-15T12:36:04.419Z,2.37
2018-09-15T12:41:01.862Z,10.87
2018-09-15T12:45:59.283Z,6.60
2018-09-15T12:50:57.057Z,3.00
2018-09-15T12:55:54.475Z,7.13
2018-09-15T13:00:51.891Z,3.83
2018-09-15T13:05:49.283Z,11.63
2018-09-15T13:10:46.830Z,2.83
2018-09-15T13:15:44.235Z,5.80
2018-09-15T13:20:42.168Z,6.37
2018-09-15T13:25:39.600Z,2.80
2018-09-15T13:30:37.019Z,3.10
2018-09-15T13:35:34.434Z,1.90
2018-09-15T13:40:31.843Z,2.40
2018-09-15T13:45:29.236Z,5.13
2018-09-15T13:50:26.655Z,7.20
2018-09-15T13:55:24.071Z,3.70
2018-09-15T14:00:21.499Z,5.00
2018-09-15T14:05:18.938Z,5.73
2018-09-15T14:10:19.007Z,5.23
2018-09-15T14:15:15.012Z,4.17
2018-09-15T14:20:12.415Z,7.03
2018-09-15T14:25:09.815Z,3.47
2018-09-15T14:30:07.262Z,5.13
2018-09-15T14:35:04.753Z,4.03
2018-09-15T14:40:03.222Z,6.13
2018-09-15T14:45:00.624Z,2.97
2018-09-15T14:49:58.050Z,6.97
2018-09-15T14:54:55.460Z,7.50
2018-09-15T14:59:52.882Z,3.37
2018-09-15T15:04:50.299Z,9.83
2018-09-15T15:09:55.670Z,30.27
2018-09-15T15:14:53.076Z,4.83
2018-09-15T15:19:50.486Z,7.60
2018-09-15T15:24:47.907Z,11.13
2018-09-15T15:29:45.323Z,7.00
2018-09-15T15:34:42.766Z,8.60
2018-09-15T15:39:48.226Z,5.70
2018-09-15T15:44:46.084Z,1.33
2018-09-15T15:49:43.675Z,1.50
2018-09-15T15:54:41.127Z,4.40
2018-09-15T15:59:38.580Z,3.17
2018-09-15T16:04:35.986Z,6.50
2018-09-15T16:09:40.469Z,3.67
2018-09-15T16:14:38.027Z,2.67
2018-09-15T16:19:35.503Z,4.40
2018-09-15T16:24:36.909Z,4.30
2018-09-15T16:29:34.435Z,3.70
2018-09-15T16:34:31.935Z,5.50
2018-09-15T16:39:36.858Z,4.30
2018-09-15T16:44:34.351Z,3.27
2018-09-15T16:49:31.811Z,4.30
2018-09-15T16:54:30.370Z,4.70
2018-09-15T16:59:27.763Z,6.57
2018-09-15T17:04:25.174Z,6.27
2018-09-15T17:14:33.849Z,6.57
2018-09-15T17:19:31.247Z,6.00
2018-09-15T17:24:29.684Z,3.43
2018-09-15T17:29:27.308Z,3.87
2018-09-15T17:34:25.810Z,7.40
2018-09-15T17:39:30.056Z,9.20
2018-09-15T17:44:28.636Z,6.00
2018-09-15T17:49:26.054Z,5.43
2018-09-15T17:54:24.944Z,5.53
2018-09-15T17:59:22.403Z,3.13
2018-09-15T18:04:20.099Z,3.83
2018-09-15T18:09:25.270Z,6.40
2018-09-15T18:14:23.771Z,7.03
2018-09-15T18:19:21.171Z,4.40
2018-09-15T18:24:18.562Z,5.40
2018-09-15T18:29:15.946Z,9.40
2018-09-15T18:34:13.331Z,5.87
2018-09-15T18:39:13.584Z,3.23
2018-09-15T18:44:11.090Z,7.57
2018-09-15T18:49:08.483Z,5.50
2018-09-15T18:54:08.564Z,7.53
2018-09-15T18:59:06.263Z,5.63
2018-09-15T19:04:03.671Z,9.03
2018-09-15T19:09:01.060Z,9.20
2018-09-15T19:13:58.487Z,14.03
2018-09-15T19:18:55.871Z,6.00
2018-09-15T19:23:53.244Z,3.13
2018-09-15T19:28:50.615Z,8.00
2018-09-15T19:33:48.296Z,6.53
2018-09-15T19:38:47.474Z,5.43
2018-09-15T19:43:45.068Z,35.63
2018-09-15T19:48:42.450Z,14.67
2018-09-15T19:53:39.831Z,22.73
2018-09-15T19:58:37.221Z,13.43
2018-09-15T20:03:34.611Z,17.20
2018-09-15T20:08:31.994Z,7.67
2018-09-15T20:13:29.415Z,9.63
2018-09-15T20:18:25.711Z,7.27
2018-09-15T20:23:23.086Z,7.87
2018-09-15T20:28:20.471Z,7.70
2018-09-15T20:33:17.890Z,6.17
2018-09-15T20:38:15.274Z,8.63
2018-09-15T20:43:12.718Z,7.30
2018-09-15T20:48:10.095Z,5.40
2018-09-15T20:53:07.507Z,5.03
2018-09-15T20:58:04.980Z,6.40
2018-09-15T21:03:02.365Z,7.60
2018-09-15T21:07:59.790Z,5.97
2018-09-15T21:12:57.246Z,8.60
2018-09-15T21:17:54.625Z,8.93
2018-09-15T21:22:52.010Z,8.70
2018-09-15T21:27:49.412Z,17.20
2018-09-15T21:32:46.795Z,6.17
2018-09-15T21:37:44.512Z,9.80
2018-09-15T21:42:41.937Z,9.90
2018-09-15T21:47:39.343Z,10.53
2018-09-15T21:52:36.748Z,5.90
2018-09-15T21:57:35.316Z,14.33
2018-09-15T22:02:32.702Z,12.10
2018-09-15T22:07:30.083Z,12.70
2018-09-15T22:12:27.550Z,9.53
2018-09-15T22:17:24.980Z,7.63
2018-09-15T22:22:22.506Z,10.40
2018-09-15T22:27:19.802Z,12.10
2018-09-15T22:32:17.215Z,13.53
2018-09-15T22:37:14.598Z,12.80
2018-09-15T22:42:12.030Z,8.70
2018-09-15T22:47:09.404Z,10.00
2018-09-15T22:52:06.812Z,8.47
2018-09-15T22:57:04.406Z,15.03
2018-09-15T23:02:01.823Z,9.10
2018-09-15T23:06:59.567Z,7.67
2018-09-15T23:11:57.411Z,11.90
2018-09-15T23:16:54.792Z,7.90
2018-09-15T23:21:52.186Z,16.50
2018-09-15T23:26:49.630Z,8.63
2018-09-15T23:31:47.021Z,8.60
2018-09-15T23:36:44.407Z,7.00
2018-09-15T23:41:41.794Z,7.67
2018-09-15T23:46:39.171Z,9.47
2018-09-15T23:51:36.582Z,9.00
2018-09-15T23:56:33.963Z,10.53
